sensor_id;sensor_type;location;lat;lon;timestamp;temperature;humidity
75091;DHT22;63674;48.048;8.306;2022-11-15T00:01:26;3.40;99.90
75091;DHT22;63674;48.048;8.306;2022-11-15T00:03:55;3.40;99.90
75091;DHT22;63674;48.048;8.306;2022-11-15T00:06:24;3.40;99.90
75091;DHT22;63674;48.048;8.306;2022-11-15T00:08:52;3.30;99.90
75091;DHT22;63674;48.048;8.306;2022-11-15T00:11:21;3.30;99.90
75091;DHT22;63674;48.048;8.306;2022-11-15T00:13:51;3.30;99.90
75091;DHT22;63674;48.048;8.306;2022-11-15T00:16:19;3.30;99.90
75091;DHT22;63674;48.048;8.306;2022-11-15T00:18:48;3.30;99.90
75091;DHT22;63674;48.048;8.306;2022-11-15T00:21:17;3.40;99.90
75091;DHT22;63674;48.048;8.306;2022-11-15T00:23:46;3.40;99.90
75091;DHT22;63674;48.048;8.306;2022-11-15T00:26:14;3.30;99.90
75091;DHT22;63674;48.048;8.306;2022-11-15T00:28:43;3.40;99.90
75091;DHT22;63674;48.048;8.306;2022-11-15T00:31:14;3.40;99.90
75091;DHT22;63674;48.048;8.306;2022-11-15T00:33:43;3.40;99.90
75091;DHT22;63674;48.048;8.306;2022-11-15T00:36:12;3.40;99.90
75091;DHT22;63674;48.048;8.306;2022-11-15T00:38:41;3.40;99.90
75091;DHT22;63674;48.048;8.306;2022-11-15T00:41:10;3.40;99.90
75091;DHT22;63674;48.048;8.306;2022-11-15T00:43:38;3.50;99.90
75091;DHT22;63674;48.048;8.306;2022-11-15T00:46:10;3.50;99.90
75091;DHT22;63674;48.048;8.306;2022-11-15T00:48:40;3.50;99.90
75091;DHT22;63674;48.048;8.306;2022-11-15T00:51:09;3.40;99.90
75091;DHT22;63674;48.048;8.306;2022-11-15T00:53:37;3.30;99.90
75091;DHT22;63674;48.048;8.306;2022-11-15T00:56:06;3.30;99.90
75091;DHT22;63674;48.048;8.306;2022-11-15T00:58:35;3.30;99.90
75091;DHT22;63674;48.048;8.306;2022-11-15T01:01:07;3.20;99.90
75091;DHT22;63674;48.048;8.306;2022-11-15T01:03:39;3.10;99.90
75091;DHT22;63674;48.048;8.306;2022-11-15T01:06:09;3.00;99.90
75091;DHT22;63674;48.048;8.306;2022-11-15T01:08:39;2.90;99.90
75091;DHT22;63674;48.048;8.306;2022-11-15T01:11:09;3.00;99.90
75091;DHT22;63674;48.048;8.306;2022-11-15T01:13:39;3.10;99.90
75091;DHT22;63674;48.048;8.306;2022-11-15T01:16:09;3.10;99.90
75091;DHT22;63674;48.048;8.306;2022-11-15T01:18:41;3.00;99.90
75091;DHT22;63674;48.048;8.306;2022-11-15T01:21:10;3.10;99.90
75091;DHT22;63674;48.048;8.306;2022-11-15T01:23:41;3.10;99.90
75091;DHT22;63674;48.048;8.306;2022-11-15T01:26:13;3.10;99.90
75091;DHT22;63674;48.048;8.306;2022-11-15T01:28:42;3.10;99.90
75091;DHT22;63674;48.048;8.306;2022-11-15T01:31:14;3.10;99.90
75091;DHT22;63674;48.048;8.306;2022-11-15T01:33:46;3.00;99.90
75091;DHT22;63674;48.048;8.306;2022-11-15T01:36:16;3.10;99.90
75091;DHT22;63674;48.048;8.306;2022-11-15T01:38:46;3.00;99.90
75091;DHT22;63674;48.048;8.306;2022-11-15T01:41:20;3.10;99.90
75091;DHT22;63674;48.048;8.306;2022-11-15T01:43:52;3.10;99.90
75091;DHT22;63674;48.048;8.306;2022-11-15T01:46:27;3.20;99.90
75091;DHT22;63674;48.048;8.306;2022-11-15T01:49:02;3.30;99.90
75091;DHT22;63674;48.048;8.306;2022-11-15T01:51:33;3.30;99.90
75091;DHT22;63674;48.048;8.306;2022-11-15T01:54:06;3.40;99.90
75091;DHT22;63674;48.048;8.306;2022-11-15T01:56:42;3.40;99.90
75091;DHT22;63674;48.048;8.306;2022-11-15T01:59:14;3.50;99.90
75091;DHT22;63674;48.048;8.306;2022-11-15T02:01:43;3.50;99.90
75091;DHT22;63674;48.048;8.306;2022-11-15T02:04:15;3.60;99.90
75091;DHT22;63674;48.048;8.306;2022-11-15T02:06:46;3.60;99.90
75091;DHT22;63674;48.048;8.306;2022-11-15T02:09:17;3.60;99.90
75091;DHT22;63674;48.048;8.306;2022-11-15T02:11:46;3.60;99.90
75091;DHT22;63674;48.048;8.306;2022-11-15T02:14:18;3.60;99.90
75091;DHT22;63674;48.048;8.306;2022-11-15T02:16:54;3.60;99.90
75091;DHT22;63674;48.048;8.306;2022-11-15T02:19:42;3.60;99.90
75091;DHT22;63674;48.048;8.306;2022-11-15T02:22:38;3.60;99.90
75091;DHT22;63674;48.048;8.306;2022-11-15T02:25:30;3.60;99.90
75091;DHT22;63674;48.048;8.306;2022-11-15T02:31:28;3.70;99.90
75091;DHT22;63674;48.048;8.306;2022-11-15T02:34:05;3.70;99.90
75091;DHT22;63674;48.048;8.306;2022-11-15T02:36:41;3.80;99.90
75091;DHT22;63674;48.048;8.306;2022-11-15T02:39:20;3.70;99.90
75091;DHT22;63674;48.048;8.306;2022-11-15T02:41:55;3.70;99.90
75091;DHT22;63674;48.048;8.306;2022-11-15T02:44:32;3.80;99.90
75091;DHT22;63674;48.048;8.306;2022-11-15T02:47:04;3.80;99.90
75091;DHT22;63674;48.048;8.306;2022-11-15T02:49:43;3.90;99.90
75091;DHT22;63674;48.048;8.306;2022-11-15T02:52:15;3.80;99.90
75091;DHT22;63674;48.048;8.306;2022-11-15T02:54:53;3.80;99.90
75091;DHT22;63674;48.048;8.306;2022-11-15T02:57:31;3.90;99.90
75091;DHT22;63674;48.048;8.306;2022-11-15T03:00:08;4.00;99.90
75091;DHT22;63674;48.048;8.306;2022-11-15T03:02:57;4.00;99.90
75091;DHT22;63674;48.048;8.306;2022-11-15T03:05:42;4.00;99.90
75091;DHT22;63674;48.048;8.306;2022-11-15T03:08:20;4.00;99.90
75091;DHT22;63674;48.048;8.306;2022-11-15T03:10:59;3.90;99.90
75091;DHT22;63674;48.048;8.306;2022-11-15T03:13:37;3.90;99.90
75091;DHT22;63674;48.048;8.306;2022-11-15T03:16:11;3.80;99.90
75091;DHT22;63674;48.048;8.306;2022-11-15T03:18:47;3.70;99.90
75091;DHT22;63674;48.048;8.306;2022-11-15T03:21:21;3.70;99.90
75091;DHT22;63674;48.048;8.306;2022-11-15T03:23:50;3.70;99.90
75091;DHT22;63674;48.048;8.306;2022-11-15T03:26:21;3.70;99.90
75091;DHT22;63674;48.048;8.306;2022-11-15T03:28:54;3.80;99.90
75091;DHT22;63674;48.048;8.306;2022-11-15T03:31:26;3.80;99.90
75091;DHT22;63674;48.048;8.306;2022-11-15T03:34:25;3.80;99.90
75091;DHT22;63674;48.048;8.306;2022-11-15T03:36:55;3.80;99.90
75091;DHT22;63674;48.048;8.306;2022-11-15T03:39:25;3.90;99.90
75091;DHT22;63674;48.048;8.306;2022-11-15T03:42:04;3.90;99.90
75091;DHT22;63674;48.048;8.306;2022-11-15T03:44:44;4.00;99.90
75091;DHT22;63674;48.048;8.306;2022-11-15T03:47:19;4.00;99.90
75091;DHT22;63674;48.048;8.306;2022-11-15T03:49:53;4.00;99.90
75091;DHT22;63674;48.048;8.306;2022-11-15T03:52:24;4.10;99.90
75091;DHT22;63674;48.048;8.306;2022-11-15T03:54:54;4.10;99.90
75091;DHT22;63674;48.048;8.306;2022-11-15T03:57:24;4.10;99.90
75091;DHT22;63674;48.048;8.306;2022-11-15T03:59:52;4.20;99.90
75091;DHT22;63674;48.048;8.306;2022-11-15T04:02:21;4.20;99.90
75091;DHT22;63674;48.048;8.306;2022-11-15T04:04:51;4.30;99.90
75091;DHT22;63674;48.048;8.306;2022-11-15T04:07:20;4.30;99.90
75091;DHT22;63674;48.048;8.306;2022-11-15T04:09:49;4.40;99.90
75091;DHT22;63674;48.048;8.306;2022-11-15T04:12:37;4.30;99.90
75091;DHT22;63674;48.048;8.306;2022-11-15T04:15:10;4.40;99.90
75091;DHT22;63674;48.048;8.306;2022-11-15T04:17:41;4.40;99.90
75091;DHT22;63674;48.048;8.306;2022-11-15T04:20:14;4.50;99.90
75091;DHT22;63674;48.048;8.306;2022-11-15T04:23:05;4.40;99.90
75091;DHT22;63674;48.048;8.306;2022-11-15T04:25:53;4.40;99.90
75091;DHT22;63674;48.048;8.306;2022-11-15T04:28:23;4.40;99.90
75091;DHT22;63674;48.048;8.306;2022-11-15T04:30:52;4.40;99.90
75091;DHT22;63674;48.048;8.306;2022-11-15T04:33:21;4.50;99.90
75091;DHT22;63674;48.048;8.306;2022-11-15T04:35:51;4.50;99.90
75091;DHT22;63674;48.048;8.306;2022-11-15T04:38:37;4.60;99.90
75091;DHT22;63674;48.048;8.306;2022-11-15T04:41:06;4.70;99.90
75091;DHT22;63674;48.048;8.306;2022-11-15T04:43:34;4.80;99.90
75091;DHT22;63674;48.048;8.306;2022-11-15T04:46:03;5.00;99.90
75091;DHT22;63674;48.048;8.306;2022-11-15T04:48:32;5.20;99.90
75091;DHT22;63674;48.048;8.306;2022-11-15T04:51:02;6.00;99.90
75091;DHT22;63674;48.048;8.306;2022-11-15T04:53:30;6.30;99.90
75091;DHT22;63674;48.048;8.306;2022-11-15T04:55:59;6.30;99.90
75091;DHT22;63674;48.048;8.306;2022-11-15T04:58:28;6.40;99.90
75091;DHT22;63674;48.048;8.306;2022-11-15T05:00:56;6.80;99.90
75091;DHT22;63674;48.048;8.306;2022-11-15T05:03:25;6.60;99.90
75091;DHT22;63674;48.048;8.306;2022-11-15T05:06:12;6.70;99.90
75091;DHT22;63674;48.048;8.306;2022-11-15T05:08:41;7.10;99.90
75091;DHT22;63674;48.048;8.306;2022-11-15T05:11:09;7.30;99.90
75091;DHT22;63674;48.048;8.306;2022-11-15T05:13:38;7.50;99.90
75091;DHT22;63674;48.048;8.306;2022-11-15T05:16:07;7.70;99.90
75091;DHT22;63674;48.048;8.306;2022-11-15T05:18:35;7.80;99.90
75091;DHT22;63674;48.048;8.306;2022-11-15T05:21:09;7.80;99.90
75091;DHT22;63674;48.048;8.306;2022-11-15T05:23:41;7.80;99.90
75091;DHT22;63674;48.048;8.306;2022-11-15T05:26:10;8.00;99.90
75091;DHT22;63674;48.048;8.306;2022-11-15T05:28:39;8.10;99.90
75091;DHT22;63674;48.048;8.306;2022-11-15T05:31:09;8.30;99.90
75091;DHT22;63674;48.048;8.306;2022-11-15T05:33:41;8.20;99.90
75091;DHT22;63674;48.048;8.306;2022-11-15T05:36:13;8.30;99.90
75091;DHT22;63674;48.048;8.306;2022-11-15T05:38:48;8.40;99.90
75091;DHT22;63674;48.048;8.306;2022-11-15T05:41:20;8.40;99.90
75091;DHT22;63674;48.048;8.306;2022-11-15T05:43:50;8.40;99.90
75091;DHT22;63674;48.048;8.306;2022-11-15T05:46:19;8.40;99.90
75091;DHT22;63674;48.048;8.306;2022-11-15T05:48:49;8.60;99.90
75091;DHT22;63674;48.048;8.306;2022-11-15T05:51:19;8.60;99.90
75091;DHT22;63674;48.048;8.306;2022-11-15T05:53:51;8.60;99.90
75091;DHT22;63674;48.048;8.306;2022-11-15T05:56:20;8.70;99.90
75091;DHT22;63674;48.048;8.306;2022-11-15T05:58:48;8.80;99.90
75091;DHT22;63674;48.048;8.306;2022-11-15T06:01:23;8.90;99.90
75091;DHT22;63674;48.048;8.306;2022-11-15T06:03:53;8.80;99.90
75091;DHT22;63674;48.048;8.306;2022-11-15T06:06:22;8.70;99.90
75091;DHT22;63674;48.048;8.306;2022-11-15T06:08:51;8.80;99.90
75091;DHT22;63674;48.048;8.306;2022-11-15T06:11:20;8.80;99.90
75091;DHT22;63674;48.048;8.306;2022-11-15T06:13:48;8.70;99.90
75091;DHT22;63674;48.048;8.306;2022-11-15T06:16:17;8.60;99.90
75091;DHT22;63674;48.048;8.306;2022-11-15T06:18:45;8.50;99.90
75091;DHT22;63674;48.048;8.306;2022-11-15T06:21:14;8.40;99.90
75091;DHT22;63674;48.048;8.306;2022-11-15T06:23:43;8.30;99.90
75091;DHT22;63674;48.048;8.306;2022-11-15T06:26:13;8.10;99.90
75091;DHT22;63674;48.048;8.306;2022-11-15T06:28:41;7.90;99.90
75091;DHT22;63674;48.048;8.306;2022-11-15T06:31:10;7.90;99.90
75091;DHT22;63674;48.048;8.306;2022-11-15T06:33:39;7.90;99.90
75091;DHT22;63674;48.048;8.306;2022-11-15T06:36:10;7.80;99.90
75091;DHT22;63674;48.048;8.306;2022-11-15T06:38:44;8.00;99.90
75091;DHT22;63674;48.048;8.306;2022-11-15T06:41:14;8.00;99.90
75091;DHT22;63674;48.048;8.306;2022-11-15T06:43:43;7.90;99.90
75091;DHT22;63674;48.048;8.306;2022-11-15T06:46:12;8.00;99.90
75091;DHT22;63674;48.048;8.306;2022-11-15T06:48:41;7.80;99.90
75091;DHT22;63674;48.048;8.306;2022-11-15T06:51:09;7.70;99.90
75091;DHT22;63674;48.048;8.306;2022-11-15T06:53:38;7.60;99.90
75091;DHT22;63674;48.048;8.306;2022-11-15T06:56:07;7.60;99.90
75091;DHT22;63674;48.048;8.306;2022-11-15T06:58:38;7.50;99.90
75091;DHT22;63674;48.048;8.306;2022-11-15T07:01:08;7.50;99.90
75091;DHT22;63674;48.048;8.306;2022-11-15T07:03:39;7.50;99.90
75091;DHT22;63674;48.048;8.306;2022-11-15T07:06:09;7.50;99.90
75091;DHT22;63674;48.048;8.306;2022-11-15T07:08:38;7.40;99.90
75091;DHT22;63674;48.048;8.306;2022-11-15T07:11:08;7.40;99.90
75091;DHT22;63674;48.048;8.306;2022-11-15T07:13:38;7.30;99.90
75091;DHT22;63674;48.048;8.306;2022-11-15T07:16:09;7.30;99.90
75091;DHT22;63674;48.048;8.306;2022-11-15T07:18:40;7.30;99.90
75091;DHT22;63674;48.048;8.306;2022-11-15T07:21:09;7.20;99.90
75091;DHT22;63674;48.048;8.306;2022-11-15T07:23:39;7.20;99.90
75091;DHT22;63674;48.048;8.306;2022-11-15T07:26:08;7.20;99.90
75091;DHT22;63674;48.048;8.306;2022-11-15T07:28:38;7.20;99.90
75091;DHT22;63674;48.048;8.306;2022-11-15T07:31:08;7.30;99.90
75091;DHT22;63674;48.048;8.306;2022-11-15T07:33:37;7.20;99.90
75091;DHT22;63674;48.048;8.306;2022-11-15T07:36:07;7.20;99.90
75091;DHT22;63674;48.048;8.306;2022-11-15T07:38:36;7.20;99.90
75091;DHT22;63674;48.048;8.306;2022-11-15T07:41:09;7.20;99.90
75091;DHT22;63674;48.048;8.306;2022-11-15T07:43:39;7.20;99.90
75091;DHT22;63674;48.048;8.306;2022-11-15T07:46:08;7.20;99.90
75091;DHT22;63674;48.048;8.306;2022-11-15T07:48:37;7.20;99.90
75091;DHT22;63674;48.048;8.306;2022-11-15T07:51:12;7.20;99.90
75091;DHT22;63674;48.048;8.306;2022-11-15T07:53:41;7.20;99.90
75091;DHT22;63674;48.048;8.306;2022-11-15T07:56:10;7.30;99.90
75091;DHT22;63674;48.048;8.306;2022-11-15T07:58:40;7.30;99.90
75091;DHT22;63674;48.048;8.306;2022-11-15T08:01:10;7.40;99.90
75091;DHT22;63674;48.048;8.306;2022-11-15T08:03:39;7.40;99.90
75091;DHT22;63674;48.048;8.306;2022-11-15T08:06:07;7.40;99.90
75091;DHT22;63674;48.048;8.306;2022-11-15T08:08:36;7.40;99.90
75091;DHT22;63674;48.048;8.306;2022-11-15T08:11:04;7.50;99.90
75091;DHT22;63674;48.048;8.306;2022-11-15T08:13:33;7.50;99.90
75091;DHT22;63674;48.048;8.306;2022-11-15T08:16:04;7.50;99.90
75091;DHT22;63674;48.048;8.306;2022-11-15T08:18:33;7.50;99.90
75091;DHT22;63674;48.048;8.306;2022-11-15T08:21:02;7.60;99.90
75091;DHT22;63674;48.048;8.306;2022-11-15T08:23:31;7.60;99.90
75091;DHT22;63674;48.048;8.306;2022-11-15T08:26:01;7.60;99.90
75091;DHT22;63674;48.048;8.306;2022-11-15T08:28:31;7.60;99.90
75091;DHT22;63674;48.048;8.306;2022-11-15T08:31:00;7.60;99.90
75091;DHT22;63674;48.048;8.306;2022-11-15T08:33:30;7.70;99.90
75091;DHT22;63674;48.048;8.306;2022-11-15T08:36:01;7.80;99.90
75091;DHT22;63674;48.048;8.306;2022-11-15T08:38:30;7.70;99.90
75091;DHT22;63674;48.048;8.306;2022-11-15T08:41:02;7.80;99.90
75091;DHT22;63674;48.048;8.306;2022-11-15T08:43:33;7.80;99.90
75091;DHT22;63674;48.048;8.306;2022-11-15T08:46:02;7.90;99.90
75091;DHT22;63674;48.048;8.306;2022-11-15T08:48:32;7.90;99.90
75091;DHT22;63674;48.048;8.306;2022-11-15T08:51:01;7.90;99.90
75091;DHT22;63674;48.048;8.306;2022-11-15T08:53:29;7.90;99.90
75091;DHT22;63674;48.048;8.306;2022-11-15T08:55:58;8.00;99.90
75091;DHT22;63674;48.048;8.306;2022-11-15T08:58:26;8.00;99.90
75091;DHT22;63674;48.048;8.306;2022-11-15T09:00:55;8.00;99.90
75091;DHT22;63674;48.048;8.306;2022-11-15T09:03:24;8.00;99.90
75091;DHT22;63674;48.048;8.306;2022-11-15T09:05:56;8.00;99.90
75091;DHT22;63674;48.048;8.306;2022-11-15T09:08:26;8.00;99.90
75091;DHT22;63674;48.048;8.306;2022-11-15T09:11:13;8.10;99.90
75091;DHT22;63674;48.048;8.306;2022-11-15T09:13:43;8.20;99.90
75091;DHT22;63674;48.048;8.306;2022-11-15T09:16:12;8.20;99.90
75091;DHT22;63674;48.048;8.306;2022-11-15T09:18:42;8.20;99.90
75091;DHT22;63674;48.048;8.306;2022-11-15T09:21:12;8.20;99.90
75091;DHT22;63674;48.048;8.306;2022-11-15T09:23:41;8.30;99.90
75091;DHT22;63674;48.048;8.306;2022-11-15T09:26:09;8.30;99.90
75091;DHT22;63674;48.048;8.306;2022-11-15T09:28:38;8.30;99.90
75091;DHT22;63674;48.048;8.306;2022-11-15T09:31:09;8.40;99.90
75091;DHT22;63674;48.048;8.306;2022-11-15T09:33:37;8.40;99.90
75091;DHT22;63674;48.048;8.306;2022-11-15T09:36:08;8.40;99.90
75091;DHT22;63674;48.048;8.306;2022-11-15T09:38:38;8.50;99.90
75091;DHT22;63674;48.048;8.306;2022-11-15T09:41:32;8.60;99.90
75091;DHT22;63674;48.048;8.306;2022-11-15T09:44:25;8.60;99.90
75091;DHT22;63674;48.048;8.306;2022-11-15T09:47:16;8.80;99.90
75091;DHT22;63674;48.048;8.306;2022-11-15T09:50:09;9.10;99.90
75091;DHT22;63674;48.048;8.306;2022-11-15T09:52:42;9.70;99.90
75091;DHT22;63674;48.048;8.306;2022-11-15T09:55:14;9.70;99.90
75091;DHT22;63674;48.048;8.306;2022-11-15T09:58:00;9.70;99.90
75091;DHT22;63674;48.048;8.306;2022-11-15T10:00:33;9.80;99.90
75091;DHT22;63674;48.048;8.306;2022-11-15T10:03:14;9.90;99.90
75091;DHT22;63674;48.048;8.306;2022-11-15T10:05:46;10.00;99.90
75091;DHT22;63674;48.048;8.306;2022-11-15T10:08:37;10.00;99.90
75091;DHT22;63674;48.048;8.306;2022-11-15T10:11:17;10.20;99.90
75091;DHT22;63674;48.048;8.306;2022-11-15T10:14:09;10.40;99.90
75091;DHT22;63674;48.048;8.306;2022-11-15T10:19:54;10.40;99.90
75091;DHT22;63674;48.048;8.306;2022-11-15T10:22:37;10.40;99.90
75091;DHT22;63674;48.048;8.306;2022-11-15T10:25:17;10.40;99.90
75091;DHT22;63674;48.048;8.306;2022-11-15T10:27:54;10.40;99.90
75091;DHT22;63674;48.048;8.306;2022-11-15T10:30:31;10.40;99.90
75091;DHT22;63674;48.048;8.306;2022-11-15T10:36:14;10.30;99.90
75091;DHT22;63674;48.048;8.306;2022-11-15T10:38:53;10.40;99.90
75091;DHT22;63674;48.048;8.306;2022-11-15T10:41:31;10.40;99.90
75091;DHT22;63674;48.048;8.306;2022-11-15T10:44:22;10.30;99.90
75091;DHT22;63674;48.048;8.306;2022-11-15T10:50:01;10.40;99.90
75091;DHT22;63674;48.048;8.306;2022-11-15T10:52:34;10.50;99.90
75091;DHT22;63674;48.048;8.306;2022-11-15T10:55:20;10.60;99.90
75091;DHT22;63674;48.048;8.306;2022-11-15T10:57:53;10.60;99.90
75091;DHT22;63674;48.048;8.306;2022-11-15T11:00:37;10.60;99.90
75091;DHT22;63674;48.048;8.306;2022-11-15T11:03:25;10.60;99.90
75091;DHT22;63674;48.048;8.306;2022-11-15T11:06:11;10.60;99.90
75091;DHT22;63674;48.048;8.306;2022-11-15T11:08:52;10.60;99.60
75091;DHT22;63674;48.048;8.306;2022-11-15T11:11:23;10.60;99.90
75091;DHT22;63674;48.048;8.306;2022-11-15T11:13:52;10.60;99.90
75091;DHT22;63674;48.048;8.306;2022-11-15T11:16:43;10.60;99.90
75091;DHT22;63674;48.048;8.306;2022-11-15T11:19:38;10.50;99.90
75091;DHT22;63674;48.048;8.306;2022-11-15T11:22:23;10.40;99.90
75091;DHT22;63674;48.048;8.306;2022-11-15T11:27:58;10.40;99.90
75091;DHT22;63674;48.048;8.306;2022-11-15T11:30:43;10.40;99.90
75091;DHT22;63674;48.048;8.306;2022-11-15T11:33:20;10.40;99.90
75091;DHT22;63674;48.048;8.306;2022-11-15T11:35:58;10.40;99.90
75091;DHT22;63674;48.048;8.306;2022-11-15T11:38:43;10.40;99.90
75091;DHT22;63674;48.048;8.306;2022-11-15T11:41:45;10.40;99.90
75091;DHT22;63674;48.048;8.306;2022-11-15T11:44:28;10.40;99.90
75091;DHT22;63674;48.048;8.306;2022-11-15T11:47:01;10.40;99.90
75091;DHT22;63674;48.048;8.306;2022-11-15T11:49:41;10.40;99.90
75091;DHT22;63674;48.048;8.306;2022-11-15T11:52:15;10.40;99.90
75091;DHT22;63674;48.048;8.306;2022-11-15T11:54:52;10.40;99.90
75091;DHT22;63674;48.048;8.306;2022-11-15T11:57:33;10.40;99.90
75091;DHT22;63674;48.048;8.306;2022-11-15T12:00:14;10.50;99.90
75091;DHT22;63674;48.048;8.306;2022-11-15T12:02:50;10.60;99.90
75091;DHT22;63674;48.048;8.306;2022-11-15T12:05:34;10.60;99.90
75091;DHT22;63674;48.048;8.306;2022-11-15T12:08:20;10.60;99.90
75091;DHT22;63674;48.048;8.306;2022-11-15T12:10:57;10.70;99.90
75091;DHT22;63674;48.048;8.306;2022-11-15T12:13:31;10.70;99.90
75091;DHT22;63674;48.048;8.306;2022-11-15T12:16:10;10.70;99.90
75091;DHT22;63674;48.048;8.306;2022-11-15T12:18:41;10.70;99.90
75091;DHT22;63674;48.048;8.306;2022-11-15T12:21:18;10.70;99.90
75091;DHT22;63674;48.048;8.306;2022-11-15T12:23:58;10.70;99.90
75091;DHT22;63674;48.048;8.306;2022-11-15T12:26:35;10.70;99.90
75091;DHT22;63674;48.048;8.306;2022-11-15T12:29:14;10.70;99.90
75091;DHT22;63674;48.048;8.306;2022-11-15T12:31:49;10.70;99.90
75091;DHT22;63674;48.048;8.306;2022-11-15T12:34:42;10.80;99.90
75091;DHT22;63674;48.048;8.306;2022-11-15T12:40:29;10.70;99.90
75091;DHT22;63674;48.048;8.306;2022-11-15T12:43:37;10.70;99.90
75091;DHT22;63674;48.048;8.306;2022-11-15T12:46:19;10.70;99.90
75091;DHT22;63674;48.048;8.306;2022-11-15T12:48:55;10.70;99.90
75091;DHT22;63674;48.048;8.306;2022-11-15T12:55:01;10.80;99.90
75091;DHT22;63674;48.048;8.306;2022-11-15T12:57:39;10.90;99.90
75091;DHT22;63674;48.048;8.306;2022-11-15T13:00:38;10.90;99.90
75091;DHT22;63674;48.048;8.306;2022-11-15T13:03:24;11.00;99.90
75091;DHT22;63674;48.048;8.306;2022-11-15T13:06:03;11.00;99.90
75091;DHT22;63674;48.048;8.306;2022-11-15T13:08:43;11.10;99.90
75091;DHT22;63674;48.048;8.306;2022-11-15T13:11:50;11.10;99.90
75091;DHT22;63674;48.048;8.306;2022-11-15T13:14:47;11.20;99.90
75091;DHT22;63674;48.048;8.306;2022-11-15T13:17:33;11.20;99.90
75091;DHT22;63674;48.048;8.306;2022-11-15T13:20:26;11.20;99.90
75091;DHT22;63674;48.048;8.306;2022-11-15T13:23:07;11.20;99.90
75091;DHT22;63674;48.048;8.306;2022-11-15T13:26:07;11.20;99.90
75091;DHT22;63674;48.048;8.306;2022-11-15T13:28:43;11.20;99.90
75091;DHT22;63674;48.048;8.306;2022-11-15T13:31:25;11.20;99.90
75091;DHT22;63674;48.048;8.306;2022-11-15T13:33:59;11.10;99.90
75091;DHT22;63674;48.048;8.306;2022-11-15T13:36:31;11.10;99.90
75091;DHT22;63674;48.048;8.306;2022-11-15T13:39:03;11.00;99.90
75091;DHT22;63674;48.048;8.306;2022-11-15T13:41:34;10.90;99.90
75091;DHT22;63674;48.048;8.306;2022-11-15T13:44:19;10.90;99.90
75091;DHT22;63674;48.048;8.306;2022-11-15T13:46:49;10.80;99.90
75091;DHT22;63674;48.048;8.306;2022-11-15T13:49:29;10.80;99.90
75091;DHT22;63674;48.048;8.306;2022-11-15T13:52:00;10.80;99.90
75091;DHT22;63674;48.048;8.306;2022-11-15T13:54:34;10.80;99.90
75091;DHT22;63674;48.048;8.306;2022-11-15T13:57:08;10.70;99.90
75091;DHT22;63674;48.048;8.306;2022-11-15T13:59:47;10.70;99.90
75091;DHT22;63674;48.048;8.306;2022-11-15T14:02:18;10.70;99.90
75091;DHT22;63674;48.048;8.306;2022-11-15T14:04:50;10.70;99.90
75091;DHT22;63674;48.048;8.306;2022-11-15T14:07:21;10.70;99.90
75091;DHT22;63674;48.048;8.306;2022-11-15T14:09:51;10.70;99.90
75091;DHT22;63674;48.048;8.306;2022-11-15T14:12:29;10.60;99.90
75091;DHT22;63674;48.048;8.306;2022-11-15T14:15:02;10.60;99.90
75091;DHT22;63674;48.048;8.306;2022-11-15T14:17:47;10.50;99.90
75091;DHT22;63674;48.048;8.306;2022-11-15T14:20:26;10.50;99.90
75091;DHT22;63674;48.048;8.306;2022-11-15T14:22:58;10.40;99.90
75091;DHT22;63674;48.048;8.306;2022-11-15T14:25:29;10.40;99.90
75091;DHT22;63674;48.048;8.306;2022-11-15T14:28:13;10.40;99.90
75091;DHT22;63674;48.048;8.306;2022-11-15T14:30:45;10.40;99.90
75091;DHT22;63674;48.048;8.306;2022-11-15T14:33:23;10.30;99.90
75091;DHT22;63674;48.048;8.306;2022-11-15T14:35:56;10.30;99.90
75091;DHT22;63674;48.048;8.306;2022-11-15T14:38:26;10.30;99.90
75091;DHT22;63674;48.048;8.306;2022-11-15T14:40:54;10.30;99.90
75091;DHT22;63674;48.048;8.306;2022-11-15T14:43:23;10.20;99.90
75091;DHT22;63674;48.048;8.306;2022-11-15T14:45:53;10.10;99.90
75091;DHT22;63674;48.048;8.306;2022-11-15T14:48:22;10.10;99.90
75091;DHT22;63674;48.048;8.306;2022-11-15T14:50:50;10.10;99.90
75091;DHT22;63674;48.048;8.306;2022-11-15T14:53:19;10.10;99.90
75091;DHT22;63674;48.048;8.306;2022-11-15T14:55:49;10.00;99.90
75091;DHT22;63674;48.048;8.306;2022-11-15T14:58:17;10.00;99.90
75091;DHT22;63674;48.048;8.306;2022-11-15T15:00:46;9.90;99.90
75091;DHT22;63674;48.048;8.306;2022-11-15T15:03:15;9.90;99.90
75091;DHT22;63674;48.048;8.306;2022-11-15T15:05:44;9.90;99.90
75091;DHT22;63674;48.048;8.306;2022-11-15T15:08:13;9.90;99.90
75091;DHT22;63674;48.048;8.306;2022-11-15T15:10:43;9.90;99.90
75091;DHT22;63674;48.048;8.306;2022-11-15T15:13:17;9.80;99.90
75091;DHT22;63674;48.048;8.306;2022-11-15T15:15:47;9.80;99.90
75091;DHT22;63674;48.048;8.306;2022-11-15T15:18:18;9.70;99.90
75091;DHT22;63674;48.048;8.306;2022-11-15T15:20:51;9.60;99.90
75091;DHT22;63674;48.048;8.306;2022-11-15T15:23:22;9.50;99.90
75091;DHT22;63674;48.048;8.306;2022-11-15T15:25:53;9.50;99.90
75091;DHT22;63674;48.048;8.306;2022-11-15T15:28:22;9.40;99.90
75091;DHT22;63674;48.048;8.306;2022-11-15T15:30:57;9.40;99.90
75091;DHT22;63674;48.048;8.306;2022-11-15T15:33:27;9.30;99.90
75091;DHT22;63674;48.048;8.306;2022-11-15T15:35:55;9.30;99.90
75091;DHT22;63674;48.048;8.306;2022-11-15T15:38:24;9.20;99.90
75091;DHT22;63674;48.048;8.306;2022-11-15T15:40:53;9.20;99.90
75091;DHT22;63674;48.048;8.306;2022-11-15T15:43:22;9.10;99.90
75091;DHT22;63674;48.048;8.306;2022-11-15T15:45:50;9.10;99.90
75091;DHT22;63674;48.048;8.306;2022-11-15T15:48:19;9.10;99.90
75091;DHT22;63674;48.048;8.306;2022-11-15T15:50:49;9.10;99.90
75091;DHT22;63674;48.048;8.306;2022-11-15T15:53:17;9.10;99.90
75091;DHT22;63674;48.048;8.306;2022-11-15T15:55:46;9.00;99.90
75091;DHT22;63674;48.048;8.306;2022-11-15T15:58:14;9.00;99.90
75091;DHT22;63674;48.048;8.306;2022-11-15T16:00:43;9.00;99.90
75091;DHT22;63674;48.048;8.306;2022-11-15T16:03:12;8.90;99.90
75091;DHT22;63674;48.048;8.306;2022-11-15T16:05:40;8.90;99.90
75091;DHT22;63674;48.048;8.306;2022-11-15T16:08:17;8.90;99.90
75091;DHT22;63674;48.048;8.306;2022-11-15T16:10:46;8.90;99.90
75091;DHT22;63674;48.048;8.306;2022-11-15T16:13:16;8.90;99.90
75091;DHT22;63674;48.048;8.306;2022-11-15T16:15:47;8.90;99.90
75091;DHT22;63674;48.048;8.306;2022-11-15T16:18:18;8.80;99.90
75091;DHT22;63674;48.048;8.306;2022-11-15T16:20:48;8.80;99.90
75091;DHT22;63674;48.048;8.306;2022-11-15T16:23:20;8.80;99.90
75091;DHT22;63674;48.048;8.306;2022-11-15T16:25:51;8.80;99.90
75091;DHT22;63674;48.048;8.306;2022-11-15T16:28:24;8.80;99.90
75091;DHT22;63674;48.048;8.306;2022-11-15T16:31:02;8.80;99.90
75091;DHT22;63674;48.048;8.306;2022-11-15T16:33:32;8.70;99.90
75091;DHT22;63674;48.048;8.306;2022-11-15T16:36:03;8.70;99.90
75091;DHT22;63674;48.048;8.306;2022-11-15T16:38:34;8.70;99.90
75091;DHT22;63674;48.048;8.306;2022-11-15T16:41:03;8.60;99.90
75091;DHT22;63674;48.048;8.306;2022-11-15T16:43:32;8.60;99.90
75091;DHT22;63674;48.048;8.306;2022-11-15T16:46:06;8.50;99.90